createdAt,value
2023-02-01T00:01:08.835Z,97.43
2023-02-01T00:03:36.261Z,97.17
2023-02-01T00:06:03.743Z,97.06
2023-02-01T00:08:30.876Z,97.08
2023-02-01T00:11:15.873Z,97.16
2023-02-01T00:13:43.474Z,96.88
2023-02-01T00:16:14.058Z,96.80
2023-02-01T00:18:41.096Z,96.51
2023-02-01T00:21:08.182Z,96.44
2023-02-01T00:23:39.838Z,96.46
2023-02-01T00:26:17.901Z,95.66
2023-02-01T00:28:45.480Z,95.08
2023-02-01T00:31:13.380Z,95.20
2023-02-01T00:33:40.507Z,95.11
2023-02-01T00:36:10.396Z,94.62
2023-02-01T00:38:39.081Z,93.95
2023-02-01T00:41:24.734Z,94.06
2023-02-01T00:43:52.688Z,94.32
2023-02-01T00:46:22.539Z,94.18
2023-02-01T00:48:50.771Z,94.43
2023-02-01T00:51:22.976Z,94.03
2023-02-01T00:53:50.322Z,93.29
2023-02-01T00:56:17.952Z,93.21
2023-02-01T00:58:46.040Z,92.90
2023-02-01T01:01:24.212Z,92.24
2023-02-01T01:04:00.983Z,92.19
2023-02-01T01:06:31.843Z,92.23
2023-02-01T01:09:01.720Z,91.72
2023-02-01T01:11:33.373Z,91.21
2023-02-01T01:14:01.409Z,90.83
2023-02-01T01:16:31.127Z,90.94
2023-02-01T01:18:59.053Z,90.24
2023-02-01T01:21:26.972Z,89.76
2023-02-01T01:23:54.640Z,89.34
2023-02-01T01:26:28.492Z,89.22
2023-02-01T01:29:00.306Z,89.32
2023-02-01T01:31:28.204Z,88.82
2023-02-01T01:33:58.925Z,88.76
2023-02-01T01:36:27.785Z,88.40
2023-02-01T01:38:55.093Z,88.79
2023-02-01T01:41:26.385Z,88.85
2023-02-01T01:45:05.042Z,87.56
2023-02-01T01:47:55.395Z,87.53
2023-02-01T01:50:50.238Z,87.78
2023-02-01T01:53:26.031Z,87.31
2023-02-01T01:55:56.757Z,86.90
2023-02-01T01:58:29.989Z,87.63
2023-02-01T02:00:57.422Z,87.11
2023-02-01T02:03:42.551Z,87.11
2023-02-01T02:06:29.735Z,87.08
2023-02-01T02:08:56.858Z,86.96
2023-02-01T02:11:24.016Z,87.16
2023-02-01T02:13:55.242Z,86.89
2023-02-01T02:16:53.662Z,86.66
2023-02-01T02:19:31.483Z,85.85
2023-02-01T02:22:11.005Z,85.51
2023-02-01T02:24:51.141Z,85.60
2023-02-01T02:27:26.245Z,85.37
2023-02-01T02:30:11.674Z,85.08
2023-02-01T02:33:42.745Z,84.92
2023-02-01T02:36:39.824Z,84.97
2023-02-01T02:39:54.212Z,84.45
2023-02-01T02:42:53.980Z,84.25
2023-02-01T02:46:08.731Z,84.40
2023-02-01T02:49:10.931Z,84.01
2023-02-01T02:52:22.211Z,84.21
2023-02-01T02:54:52.928Z,84.25
2023-02-01T02:58:00.115Z,84.31
2023-02-01T03:00:52.660Z,84.39
2023-02-01T03:03:38.527Z,84.47
2023-02-01T03:06:13.320Z,84.56
2023-02-01T03:08:46.133Z,84.68
2023-02-01T03:11:16.441Z,84.68
2023-02-01T03:14:01.787Z,84.92
2023-02-01T03:16:40.806Z,84.96
2023-02-01T03:19:30.053Z,84.98
2023-02-01T03:22:09.551Z,84.38
2023-02-01T03:24:45.199Z,84.38
2023-02-01T03:27:27.942Z,84.63
2023-02-01T03:30:22.298Z,85.07
2023-02-01T03:33:01.386Z,85.06
2023-02-01T03:35:49.499Z,85.48
2023-02-01T03:38:34.566Z,85.83
2023-02-01T03:41:32.226Z,85.75
2023-02-01T03:44:14.527Z,85.78
2023-02-01T03:47:00.827Z,86.01
2023-02-01T03:49:44.408Z,86.20
2023-02-01T03:52:21.387Z,86.37
2023-02-01T03:54:50.216Z,86.67
2023-02-01T03:57:28.114Z,86.79
2023-02-01T03:59:55.227Z,86.84
2023-02-01T04:02:22.454Z,86.63
2023-02-01T04:04:49.596Z,86.75
2023-02-01T04:07:18.053Z,87.44
2023-02-01T04:09:45.118Z,87.74
2023-02-01T04:12:12.128Z,87.56
2023-02-01T04:14:39.207Z,87.87
2023-02-01T04:17:06.304Z,87.92
2023-02-01T04:19:33.367Z,87.67
2023-02-01T04:22:00.437Z,87.59
2023-02-01T04:24:27.518Z,86.80
2023-02-01T04:26:54.619Z,86.56
2023-02-01T04:29:21.654Z,87.02
2023-02-01T04:31:48.982Z,86.65
2023-02-01T04:34:16.837Z,86.54
2023-02-01T04:36:45.825Z,86.45
2023-02-01T04:39:14.280Z,85.93
2023-02-01T04:41:41.421Z,85.78
2023-02-01T04:44:18.619Z,86.09
2023-02-01T04:46:47.738Z,85.59
2023-02-01T04:49:16.340Z,84.83
2023-02-01T04:51:44.062Z,85.00
2023-02-01T04:54:14.122Z,84.70
2023-02-01T04:56:41.416Z,84.78
2023-02-01T04:59:08.445Z,84.65
2023-02-01T05:01:36.697Z,84.82
2023-02-01T05:04:04.141Z,84.64
2023-02-01T05:06:31.179Z,84.10
2023-02-01T05:08:58.308Z,83.79
2023-02-01T05:11:43.948Z,84.06
2023-02-01T05:14:13.600Z,83.73
2023-02-01T05:16:41.104Z,83.79
2023-02-01T05:19:08.154Z,83.45
2023-02-01T05:21:35.130Z,83.33
2023-02-01T05:24:11.201Z,83.42
2023-02-01T05:26:39.767Z,83.50
2023-02-01T05:29:07.638Z,83.07
2023-02-01T05:31:35.115Z,83.03
2023-02-01T05:34:02.742Z,83.19
2023-02-01T05:36:29.927Z,83.21
2023-02-01T05:38:57.090Z,82.76
2023-02-01T05:41:24.377Z,82.14
2023-02-01T05:43:51.501Z,81.85
2023-02-01T05:46:18.585Z,82.03
2023-02-01T05:48:45.643Z,82.45
2023-02-01T05:51:14.088Z,82.23
2023-02-01T05:53:41.082Z,82.19
2023-02-01T05:56:08.458Z,82.22
2023-02-01T05:58:35.692Z,82.78
2023-02-01T06:01:04.735Z,82.18
2023-02-01T06:03:31.990Z,82.67
2023-02-01T06:05:59.106Z,82.83
2023-02-01T06:08:26.809Z,82.93
2023-02-01T06:11:04.211Z,83.42
2023-02-01T06:13:34.288Z,82.83
2023-02-01T06:16:08.089Z,83.04
2023-02-01T06:18:36.326Z,83.42
2023-02-01T06:21:03.623Z,83.33
2023-02-01T06:23:31.720Z,83.05
2023-02-01T06:26:08.886Z,82.94
2023-02-01T06:28:35.971Z,82.96
2023-02-01T06:31:07.929Z,83.07
2023-02-01T06:33:36.385Z,83.51
2023-02-01T06:36:07.669Z,83.17
2023-02-01T06:38:36.185Z,82.98
2023-02-01T06:41:04.633Z,83.06
2023-02-01T06:43:33.640Z,83.00
2023-02-01T06:46:03.668Z,82.60
2023-02-01T06:48:31.978Z,82.09
2023-02-01T06:50:59.231Z,82.39
2023-02-01T06:53:27.109Z,82.24
2023-02-01T06:56:00.439Z,82.25
2023-02-01T06:58:32.604Z,82.39
2023-02-01T07:01:06.087Z,82.25
2023-02-01T07:03:33.183Z,82.88
2023-02-01T07:06:00.530Z,82.48
2023-02-01T07:08:33.311Z,82.32
2023-02-01T07:11:20.199Z,82.33
2023-02-01T07:13:47.391Z,82.42
2023-02-01T07:16:21.979Z,82.30
2023-02-01T07:18:51.578Z,82.13
2023-02-01T07:21:19.374Z,82.14
2023-02-01T07:23:46.857Z,81.81
2023-02-01T07:26:15.596Z,81.78
2023-02-01T07:28:43.318Z,81.69
2023-02-01T07:31:19.414Z,81.72
2023-02-01T07:33:46.930Z,81.31
2023-02-01T07:36:17.915Z,81.00
2023-02-01T07:38:47.943Z,80.90
2023-02-01T07:41:15.010Z,81.88
2023-02-01T07:43:42.131Z,82.28
2023-02-01T07:46:11.891Z,82.50
2023-02-01T07:48:39.157Z,82.52
2023-02-01T07:51:14.269Z,81.80
2023-02-01T07:53:42.570Z,82.47
2023-02-01T07:56:17.238Z,82.51
2023-02-01T07:58:44.642Z,82.97
2023-02-01T08:01:25.393Z,82.83
2023-02-01T08:04:02.260Z,82.83
2023-02-01T08:06:37.708Z,82.87
2023-02-01T08:09:06.030Z,82.68
2023-02-01T08:11:33.382Z,82.65
2023-02-01T08:14:00.773Z,82.79
2023-02-01T08:16:28.366Z,82.81
2023-02-01T08:18:55.845Z,83.02
2023-02-01T08:21:37.483Z,82.83
2023-02-01T08:24:10.324Z,82.58
2023-02-01T08:26:37.646Z,83.00
2023-02-01T08:29:07.670Z,83.01
2023-02-01T08:31:34.856Z,83.27
2023-02-01T08:34:06.630Z,82.73
2023-02-01T08:36:33.866Z,82.89
2023-02-01T08:39:01.717Z,82.06
2023-02-01T08:41:31.359Z,82.15
2023-02-01T08:43:59.182Z,82.21
2023-02-01T08:46:26.767Z,82.67
2023-02-01T08:48:54.128Z,83.47
2023-02-01T08:51:23.770Z,83.63
2023-02-01T08:53:51.642Z,83.70
2023-02-01T08:56:20.335Z,83.58
2023-02-01T08:58:47.432Z,83.44
2023-02-01T09:01:17.962Z,83.10
2023-02-01T09:03:45.961Z,82.58
2023-02-01T09:06:15.541Z,82.29
2023-02-01T09:08:43.216Z,81.71
2023-02-01T09:11:15.858Z,81.14
2023-02-01T09:13:43.812Z,80.57
2023-02-01T09:16:11.006Z,80.33
2023-02-01T09:18:45.973Z,80.24
2023-02-01T09:21:23.135Z,80.01
2023-02-01T09:23:52.364Z,79.99
2023-02-01T09:26:19.763Z,79.66
2023-02-01T09:28:49.998Z,79.32
2023-02-01T09:31:17.201Z,78.92
2023-02-01T09:33:44.430Z,77.97
2023-02-01T09:36:11.713Z,77.25
2023-02-01T09:38:44.509Z,76.36
2023-02-01T09:41:41.197Z,75.22
2023-02-01T09:44:52.642Z,73.94
2023-02-01T09:47:24.538Z,72.62
2023-02-01T09:50:04.847Z,71.27
2023-02-01T09:52:45.923Z,71.30
2023-02-01T09:55:43.874Z,71.55
2023-02-01T09:58:31.783Z,70.89
2023-02-01T10:01:02.133Z,71.09
2023-02-01T10:03:36.497Z,70.92
2023-02-01T10:06:27.298Z,71.14
2023-02-01T10:09:25.157Z,71.31
2023-02-01T10:12:26.285Z,70.89
2023-02-01T10:15:17.334Z,70.40
2023-02-01T10:18:07.259Z,70.69
2023-02-01T10:20:54.803Z,70.67
2023-02-01T10:23:38.942Z,70.61
2023-02-01T10:26:24.084Z,70.53
2023-02-01T10:29:03.569Z,70.96
2023-02-01T10:31:36.218Z,71.06
2023-02-01T10:34:25.962Z,71.71
2023-02-01T10:37:09.759Z,71.51
2023-02-01T10:39:38.032Z,71.46
2023-02-01T10:42:05.441Z,71.62
2023-02-01T10:44:45.900Z,71.11
2023-02-01T10:47:13.030Z,71.24
2023-02-01T10:49:56.391Z,70.32
2023-02-01T10:52:38.361Z,69.97
2023-02-01T10:55:56.337Z,69.50
2023-02-01T10:58:33.048Z,68.95
2023-02-01T11:01:09.634Z,69.07
2023-02-01T11:03:55.655Z,68.13
2023-02-01T11:06:41.510Z,68.54
2023-02-01T11:09:08.499Z,68.72
2023-02-01T11:11:47.481Z,69.17
2023-02-01T11:14:41.600Z,69.93
2023-02-01T11:17:29.883Z,69.69
2023-02-01T11:20:05.373Z,69.90
2023-02-01T11:22:32.605Z,69.35
2023-02-01T11:25:02.412Z,69.35
2023-02-01T11:27:30.009Z,69.85
2023-02-01T11:30:03.224Z,69.62
2023-02-01T11:32:31.372Z,69.67
2023-02-01T11:35:06.693Z,70.02
2023-02-01T11:37:44.013Z,70.26
2023-02-01T11:40:43.401Z,70.33
2023-02-01T11:43:29.680Z,70.51
2023-02-01T11:46:03.904Z,70.41
2023-02-01T11:48:33.958Z,70.28
2023-02-01T11:51:35.936Z,70.02
2023-02-01T11:54:30.395Z,69.75
2023-02-01T11:57:33.752Z,69.48
2023-02-01T12:00:34.289Z,68.77
2023-02-01T12:03:30.391Z,69.32
2023-02-01T12:06:41.090Z,69.58
2023-02-01T12:09:56.193Z,70.80
2023-02-01T12:12:48.916Z,71.51
2023-02-01T12:15:53.344Z,72.29
2023-02-01T12:19:03.260Z,72.95
2023-02-01T12:21:43.291Z,73.13
2023-02-01T12:25:10.346Z,73.13
2023-02-01T12:28:18.346Z,73.01
2023-02-01T12:30:57.051Z,73.83
2023-02-01T12:33:53.010Z,73.54
2023-02-01T12:36:23.399Z,74.03
2023-02-01T12:39:12.144Z,73.43
2023-02-01T12:42:05.146Z,73.22
2023-02-01T12:45:02.920Z,72.89
2023-02-01T12:47:42.952Z,72.13
2023-02-01T12:50:45.119Z,71.88
2023-02-01T12:53:24.894Z,71.79
2023-02-01T12:55:58.131Z,72.31
2023-02-01T12:58:56.841Z,72.13
2023-02-01T13:01:48.490Z,71.59
2023-02-01T13:04:37.825Z,71.39
2023-02-01T13:07:22.810Z,71.17
2023-02-01T13:10:09.073Z,71.24
2023-02-01T13:12:46.040Z,70.85
2023-02-01T13:15:30.356Z,71.06
2023-02-01T13:18:04.199Z,71.02
2023-02-01T13:20:42.956Z,70.65
2023-02-01T13:23:34.767Z,69.94
2023-02-01T13:26:01.974Z,69.40
2023-02-01T13:28:43.721Z,69.12
2023-02-01T13:31:22.922Z,68.95
2023-02-01T13:34:11.909Z,69.30
2023-02-01T13:37:29.079Z,69.25
2023-02-01T13:40:30.172Z,69.78
2023-02-01T13:43:03.310Z,70.19
2023-02-01T13:45:35.707Z,70.96
2023-02-01T13:48:16.226Z,71.98
2023-02-01T13:50:43.708Z,72.41
2023-02-01T13:53:13.962Z,72.88
2023-02-01T13:55:59.531Z,73.10
2023-02-01T13:58:45.639Z,72.85
2023-02-01T14:01:24.972Z,73.18
2023-02-01T14:04:00.877Z,74.00
2023-02-01T14:06:28.627Z,74.01
2023-02-01T14:09:12.588Z,74.10
2023-02-01T14:11:56.482Z,75.03
2023-02-01T14:14:24.613Z,74.99
2023-02-01T14:16:54.373Z,75.36
2023-02-01T14:19:32.602Z,74.77
2023-02-01T14:22:22.327Z,74.89
2023-02-01T14:24:57.912Z,74.74
2023-02-01T14:27:36.096Z,74.94
2023-02-01T14:30:08.677Z,74.33
2023-02-01T14:32:42.716Z,74.64
2023-02-01T14:35:24.848Z,74.60
2023-02-01T14:37:59.579Z,74.35
2023-02-01T14:40:29.418Z,73.63
2023-02-01T14:42:58.157Z,73.51
2023-02-01T14:45:28.734Z,73.35
2023-02-01T14:48:08.043Z,73.13
2023-02-01T14:50:41.665Z,73.82
2023-02-01T14:53:11.929Z,73.52
2023-02-01T14:56:08.289Z,73.04
2023-02-01T14:59:13.848Z,72.77
2023-02-01T15:01:53.185Z,72.66
2023-02-01T15:04:22.871Z,73.06
2023-02-01T15:06:59.990Z,72.94
2023-02-01T15:09:35.234Z,73.50
2023-02-01T15:12:18.419Z,73.76
2023-02-01T15:14:52.226Z,73.75
2023-02-01T15:17:34.823Z,73.22
2023-02-01T15:20:19.681Z,73.27
2023-02-01T15:23:18.757Z,73.41
2023-02-01T15:25:47.872Z,73.58
2023-02-01T15:28:17.444Z,73.93
2023-02-01T15:31:09.440Z,73.94
2023-02-01T15:33:36.641Z,74.14
2023-02-01T15:36:26.229Z,73.84
2023-02-01T15:39:19.382Z,73.75
2023-02-01T15:41:52.598Z,73.71
2023-02-01T15:44:29.445Z,74.14
2023-02-01T15:46:56.736Z,74.03
2023-02-01T15:49:34.175Z,74.26
2023-02-01T15:52:02.730Z,74.14
2023-02-01T15:54:51.483Z,74.26
2023-02-01T15:57:31.829Z,74.28
2023-02-01T16:00:08.648Z,74.89
2023-02-01T16:02:44.736Z,75.72
2023-02-01T16:05:40.009Z,76.22
2023-02-01T16:08:29.843Z,77.36
2023-02-01T16:11:40.544Z,77.03
2023-02-01T16:14:07.614Z,77.91
2023-02-01T16:16:34.702Z,78.16
2023-02-01T16:19:01.772Z,78.37
2023-02-01T16:21:28.780Z,78.38
2023-02-01T16:23:55.881Z,79.01
2023-02-01T16:26:22.967Z,78.49
2023-02-01T16:28:50.107Z,78.60
2023-02-01T16:31:20.632Z,78.49
2023-02-01T16:33:52.082Z,78.60
2023-02-01T16:36:20.521Z,78.47
2023-02-01T16:38:50.275Z,78.37
2023-02-01T16:41:21.075Z,78.72
2023-02-01T16:43:52.642Z,78.76
2023-02-01T16:46:26.114Z,78.62
2023-02-01T16:49:00.043Z,79.10
2023-02-01T16:51:33.701Z,78.70
2023-02-01T16:54:02.274Z,78.60
2023-02-01T16:56:35.604Z,78.93
2023-02-01T16:59:03.157Z,78.51
2023-02-01T17:01:30.471Z,78.30
2023-02-01T17:03:58.125Z,78.89
2023-02-01T17:06:28.428Z,78.66
2023-02-01T17:09:01.070Z,78.83
2023-02-01T17:11:30.981Z,79.14
2023-02-01T17:14:22.567Z,79.23
2023-02-01T17:16:52.039Z,79.17
2023-02-01T17:19:26.253Z,79.18
2023-02-01T17:21:56.847Z,79.01
2023-02-01T17:24:42.379Z,78.51
2023-02-01T17:27:16.722Z,78.72
2023-02-01T17:29:45.362Z,79.21
2023-02-01T17:32:22.273Z,79.08
2023-02-01T17:34:49.467Z,79.29
2023-02-01T17:37:35.258Z,79.35
2023-02-01T17:40:03.047Z,79.41
2023-02-01T17:42:30.769Z,80.05
2023-02-01T17:45:21.480Z,80.64
2023-02-01T17:47:48.756Z,80.66
2023-02-01T17:50:16.212Z,80.52
2023-02-01T17:52:43.247Z,80.62
2023-02-01T17:55:28.294Z,80.31
2023-02-01T17:57:55.552Z,81.40
2023-02-01T18:00:23.120Z,81.61
2023-02-01T18:02:50.233Z,81.80
2023-02-01T18:05:27.393Z,81.79
2023-02-01T18:07:54.501Z,82.52
2023-02-01T18:10:21.503Z,82.38
2023-02-01T18:12:48.648Z,82.75
2023-02-01T18:15:22.810Z,83.05
2023-02-01T18:17:50.377Z,83.10
2023-02-01T18:20:21.367Z,82.55
2023-02-01T18:22:49.500Z,82.45
2023-02-01T18:25:26.674Z,82.42
2023-02-01T18:27:57.313Z,82.01
2023-02-01T18:30:34.268Z,82.77
2023-02-01T18:33:01.533Z,83.44
2023-02-01T18:35:31.579Z,84.11
2023-02-01T18:37:59.462Z,83.54
2023-02-01T18:40:45.187Z,83.89
2023-02-01T18:43:12.463Z,83.47
2023-02-01T18:45:42.566Z,83.88
2023-02-01T18:48:12.156Z,84.60
2023-02-01T18:50:45.381Z,84.67
2023-02-01T18:53:21.735Z,84.82
2023-02-01T18:55:49.873Z,84.82
2023-02-01T18:58:18.361Z,84.22
2023-02-01T19:00:47.472Z,84.39
2023-02-01T19:03:15.959Z,84.23
2023-02-01T19:05:42.999Z,84.98
2023-02-01T19:08:10.495Z,85.08
2023-02-01T19:10:38.770Z,85.15
2023-02-01T19:13:06.855Z,84.78
2023-02-01T19:15:36.043Z,84.99
2023-02-01T19:18:05.443Z,85.61
2023-02-01T19:20:32.563Z,85.46
2023-02-01T19:22:59.648Z,85.96
2023-02-01T19:25:28.312Z,86.05
2023-02-01T19:27:55.701Z,85.47
2023-02-01T19:30:25.545Z,85.71
2023-02-01T19:32:52.878Z,85.85
2023-02-01T19:35:22.131Z,85.82
2023-02-01T19:37:49.879Z,86.31
2023-02-01T19:40:19.896Z,86.17
2023-02-01T19:42:47.945Z,86.09
2023-02-01T19:45:15.928Z,86.24
2023-02-01T19:47:42.979Z,86.39
2023-02-01T19:50:20.497Z,86.19
2023-02-01T19:52:48.669Z,86.43
2023-02-01T19:55:15.914Z,85.98
2023-02-01T19:57:43.916Z,85.95
2023-02-01T20:00:15.157Z,86.44
2023-02-01T20:02:42.358Z,86.82
2023-02-01T20:05:10.933Z,86.47
2023-02-01T20:07:38.651Z,86.53
2023-02-01T20:10:07.719Z,86.92
2023-02-01T20:12:35.427Z,86.74
2023-02-01T20:15:04.935Z,87.17
2023-02-01T20:17:34.977Z,86.85
2023-02-01T20:20:04.391Z,87.21
2023-02-01T20:22:31.605Z,86.78
2023-02-01T20:24:59.027Z,86.55
2023-02-01T20:27:26.946Z,86.51
2023-02-01T20:29:53.944Z,86.44
2023-02-01T20:32:21.109Z,86.53
2023-02-01T20:34:51.134Z,86.99
2023-02-01T20:37:18.864Z,86.79
2023-02-01T20:39:45.956Z,86.75
2023-02-01T20:42:13.173Z,86.97
2023-02-01T20:44:40.225Z,86.57
2023-02-01T20:47:07.349Z,86.93
2023-02-01T20:49:35.433Z,86.65
2023-02-01T20:52:02.458Z,86.89
2023-02-01T20:54:29.541Z,86.47
2023-02-01T20:56:56.544Z,86.50
2023-02-01T20:59:23.556Z,86.33
2023-02-01T21:01:53.626Z,86.56
2023-02-01T21:04:27.450Z,86.20
2023-02-01T21:06:59.188Z,86.54
2023-02-01T21:09:27.222Z,86.46
2023-02-01T21:11:54.522Z,86.64
2023-02-01T21:14:21.686Z,86.63
2023-02-01T21:16:49.665Z,86.58
2023-02-01T21:19:20.361Z,86.56
2023-02-01T21:21:47.502Z,86.54
2023-02-01T21:24:14.662Z,86.87
2023-02-01T21:26:41.883Z,86.97
2023-02-01T21:29:12.667Z,87.44
2023-02-01T21:31:41.824Z,86.97
2023-02-01T21:34:10.284Z,86.84
2023-02-01T21:36:37.710Z,86.90
2023-02-01T21:39:08.649Z,86.92
2023-02-01T21:41:55.893Z,86.81
2023-02-01T21:44:23.539Z,86.65
2023-02-01T21:46:51.117Z,86.93
2023-02-01T21:49:18.279Z,86.96
2023-02-01T21:51:45.431Z,86.54
2023-02-01T21:54:12.904Z,86.58
2023-02-01T21:56:41.261Z,86.35
2023-02-01T21:59:12.400Z,86.76
2023-02-01T22:01:41.077Z,86.93
2023-02-01T22:04:08.756Z,87.25
2023-02-01T22:06:45.960Z,87.20
2023-02-01T22:09:20.249Z,87.38
2023-02-01T22:11:48.310Z,87.32
2023-02-01T22:14:16.251Z,87.78
2023-02-01T22:16:43.566Z,87.53
2023-02-01T22:19:12.494Z,87.28
2023-02-01T22:21:45.188Z,86.91
2023-02-01T22:24:16.048Z,87.38
2023-02-01T22:26:44.199Z,87.34
2023-02-01T22:29:13.204Z,87.51
2023-02-01T22:31:42.158Z,87.42
2023-02-01T22:34:11.320Z,87.28
2023-02-01T22:36:38.404Z,87.28
2023-02-01T22:39:05.497Z,87.13
2023-02-01T22:41:32.986Z,87.11
2023-02-01T22:44:03.030Z,87.02
2023-02-01T22:46:31.423Z,87.52
2023-02-01T22:49:00.176Z,87.65
2023-02-01T22:51:30.472Z,87.57
2023-02-01T22:53:58.499Z,87.90
2023-02-01T22:56:31.769Z,88.59
2023-02-01T22:59:06.026Z,88.43
2023-02-01T23:01:34.500Z,88.09
2023-02-01T23:04:05.470Z,88.40
2023-02-01T23:06:34.151Z,88.79
2023-02-01T23:09:14.273Z,88.88
2023-02-01T23:11:42.383Z,89.20
2023-02-01T23:14:10.339Z,88.80
2023-02-01T23:16:38.059Z,89.04
2023-02-01T23:19:06.086Z,88.53
2023-02-01T23:21:33.572Z,88.49
2023-02-01T23:24:02.540Z,88.63
2023-02-01T23:26:31.893Z,88.17
2023-02-01T23:29:00.859Z,88.55
2023-02-01T23:31:32.921Z,88.39
2023-02-01T23:34:02.454Z,88.41
2023-02-01T23:36:31.953Z,88.98
2023-02-01T23:38:59.972Z,88.38
2023-02-01T23:41:30.152Z,89.20
2023-02-01T23:44:00.970Z,89.77
2023-02-01T23:46:41.631Z,90.28
2023-02-01T23:49:09.565Z,90.24
2023-02-01T23:51:37.536Z,90.28
2023-02-01T23:54:05.807Z,90.54
2023-02-01T23:56:40.505Z,90.61
2023-02-01T23:59:15.236Z,90.61
